sensor_id;sensor_type;location;lat;lon;timestamp;temperature;humidity
9849;DHT22;4963;51.444;6.528;2023-11-21T00:01:57;8.10;99.90
9849;DHT22;4963;51.444;6.528;2023-11-21T00:04:25;8.10;99.90
9849;DHT22;4963;51.444;6.528;2023-11-21T00:06:55;8.00;99.90
9849;DHT22;4963;51.444;6.528;2023-11-21T00:09:23;8.00;99.90
9849;DHT22;4963;51.444;6.528;2023-11-21T00:11:50;8.00;99.90
9849;DHT22;4963;51.444;6.528;2023-11-21T00:14:16;8.00;99.90
9849;DHT22;4963;51.444;6.528;2023-11-21T00:16:43;8.10;99.90
9849;DHT22;4963;51.444;6.528;2023-11-21T00:19:11;8.00;99.90
9849;DHT22;4963;51.444;6.528;2023-11-21T00:21:38;8.00;99.90
9849;DHT22;4963;51.444;6.528;2023-11-21T00:24:07;8.00;99.90
9849;DHT22;4963;51.444;6.528;2023-11-21T00:26:34;8.00;99.90
9849;DHT22;4963;51.444;6.528;2023-11-21T00:29:02;8.00;99.90
9849;DHT22;4963;51.444;6.528;2023-11-21T00:31:29;8.00;99.90
9849;DHT22;4963;51.444;6.528;2023-11-21T00:33:56;8.00;99.90
9849;DHT22;4963;51.444;6.528;2023-11-21T00:36:23;8.00;99.90
9849;DHT22;4963;51.444;6.528;2023-11-21T00:38:51;8.10;99.90
9849;DHT22;4963;51.444;6.528;2023-11-21T00:41:19;8.10;99.90
9849;DHT22;4963;51.444;6.528;2023-11-21T00:43:46;8.10;99.90
9849;DHT22;4963;51.444;6.528;2023-11-21T00:46:13;8.00;99.90
9849;DHT22;4963;51.444;6.528;2023-11-21T00:48:40;8.00;99.90
9849;DHT22;4963;51.444;6.528;2023-11-21T00:51:07;8.00;99.90
9849;DHT22;4963;51.444;6.528;2023-11-21T00:53:34;8.00;99.90
9849;DHT22;4963;51.444;6.528;2023-11-21T00:56:01;8.00;99.90
9849;DHT22;4963;51.444;6.528;2023-11-21T00:58:29;8.10;99.90
9849;DHT22;4963;51.444;6.528;2023-11-21T01:00:56;8.10;99.90
9849;DHT22;4963;51.444;6.528;2023-11-21T01:03:25;8.10;99.90
9849;DHT22;4963;51.444;6.528;2023-11-21T01:05:51;8.20;99.90
9849;DHT22;4963;51.444;6.528;2023-11-21T01:08:19;8.20;99.90
9849;DHT22;4963;51.444;6.528;2023-11-21T01:10:47;8.10;99.90
9849;DHT22;4963;51.444;6.528;2023-11-21T01:13:14;8.20;99.90
9849;DHT22;4963;51.444;6.528;2023-11-21T01:15:43;8.20;99.90
9849;DHT22;4963;51.444;6.528;2023-11-21T01:18:10;8.20;99.90
9849;DHT22;4963;51.444;6.528;2023-11-21T01:20:37;8.20;99.90
9849;DHT22;4963;51.444;6.528;2023-11-21T01:23:04;8.30;99.90
9849;DHT22;4963;51.444;6.528;2023-11-21T01:25:31;8.30;99.90
9849;DHT22;4963;51.444;6.528;2023-11-21T01:27:58;8.30;99.90
9849;DHT22;4963;51.444;6.528;2023-11-21T01:30:25;8.30;99.90
9849;DHT22;4963;51.444;6.528;2023-11-21T01:32:53;8.40;99.90
9849;DHT22;4963;51.444;6.528;2023-11-21T01:35:20;8.40;99.90
9849;DHT22;4963;51.444;6.528;2023-11-21T01:37:47;8.40;99.90
9849;DHT22;4963;51.444;6.528;2023-11-21T01:40:14;8.40;99.90
9849;DHT22;4963;51.444;6.528;2023-11-21T01:42:42;8.50;99.90
9849;DHT22;4963;51.444;6.528;2023-11-21T01:45:10;8.50;99.90
9849;DHT22;4963;51.444;6.528;2023-11-21T01:47:38;8.50;99.90
9849;DHT22;4963;51.444;6.528;2023-11-21T01:50:09;8.50;99.90
9849;DHT22;4963;51.444;6.528;2023-11-21T01:52:38;8.50;99.90
9849;DHT22;4963;51.444;6.528;2023-11-21T01:55:08;8.50;99.90
9849;DHT22;4963;51.444;6.528;2023-11-21T01:57:35;8.50;99.90
9849;DHT22;4963;51.444;6.528;2023-11-21T02:00:04;8.50;99.90
9849;DHT22;4963;51.444;6.528;2023-11-21T02:02:42;8.50;99.90
9849;DHT22;4963;51.444;6.528;2023-11-21T02:05:11;8.50;99.90
9849;DHT22;4963;51.444;6.528;2023-11-21T02:07:40;8.50;99.90
9849;DHT22;4963;51.444;6.528;2023-11-21T02:10:07;8.50;99.90
9849;DHT22;4963;51.444;6.528;2023-11-21T02:12:34;8.60;99.90
9849;DHT22;4963;51.444;6.528;2023-11-21T02:15:02;8.60;99.90
9849;DHT22;4963;51.444;6.528;2023-11-21T02:17:32;8.60;99.90
9849;DHT22;4963;51.444;6.528;2023-11-21T02:19:59;8.60;99.90
9849;DHT22;4963;51.444;6.528;2023-11-21T02:22:30;8.60;99.90
9849;DHT22;4963;51.444;6.528;2023-11-21T02:25:00;8.70;99.90
9849;DHT22;4963;51.444;6.528;2023-11-21T02:27:28;8.70;99.90
9849;DHT22;4963;51.444;6.528;2023-11-21T02:29:54;8.70;99.90
9849;DHT22;4963;51.444;6.528;2023-11-21T02:32:21;8.70;99.90
9849;DHT22;4963;51.444;6.528;2023-11-21T02:34:48;8.70;99.90
9849;DHT22;4963;51.444;6.528;2023-11-21T02:37:16;8.70;99.90
9849;DHT22;4963;51.444;6.528;2023-11-21T02:39:43;8.70;99.90
9849;DHT22;4963;51.444;6.528;2023-11-21T02:42:11;8.70;99.90
9849;DHT22;4963;51.444;6.528;2023-11-21T02:44:38;8.70;99.90
9849;DHT22;4963;51.444;6.528;2023-11-21T02:47:05;8.70;99.90
9849;DHT22;4963;51.444;6.528;2023-11-21T02:49:32;8.70;99.90
9849;DHT22;4963;51.444;6.528;2023-11-21T02:52:01;8.70;99.90
9849;DHT22;4963;51.444;6.528;2023-11-21T02:54:28;8.70;99.90
9849;DHT22;4963;51.444;6.528;2023-11-21T02:56:56;8.70;99.90
9849;DHT22;4963;51.444;6.528;2023-11-21T02:59:24;8.70;99.90
9849;DHT22;4963;51.444;6.528;2023-11-21T03:01:51;8.70;99.90
9849;DHT22;4963;51.444;6.528;2023-11-21T03:04:18;8.70;99.90
9849;DHT22;4963;51.444;6.528;2023-11-21T03:06:45;8.70;99.90
9849;DHT22;4963;51.444;6.528;2023-11-21T03:09:12;8.70;99.90
9849;DHT22;4963;51.444;6.528;2023-11-21T03:11:39;8.70;99.90
9849;DHT22;4963;51.444;6.528;2023-11-21T03:14:06;8.70;99.90
9849;DHT22;4963;51.444;6.528;2023-11-21T03:16:35;8.70;99.90
9849;DHT22;4963;51.444;6.528;2023-11-21T03:19:03;8.70;99.90
9849;DHT22;4963;51.444;6.528;2023-11-21T03:21:31;8.70;99.90
9849;DHT22;4963;51.444;6.528;2023-11-21T03:24:00;8.70;99.90
9849;DHT22;4963;51.444;6.528;2023-11-21T03:26:26;8.70;99.90
9849;DHT22;4963;51.444;6.528;2023-11-21T03:28:53;8.70;99.90
9849;DHT22;4963;51.444;6.528;2023-11-21T03:31:20;8.70;99.90
9849;DHT22;4963;51.444;6.528;2023-11-21T03:33:48;8.70;99.90
9849;DHT22;4963;51.444;6.528;2023-11-21T03:36:15;8.70;99.90
9849;DHT22;4963;51.444;6.528;2023-11-21T03:38:43;8.70;99.90
9849;DHT22;4963;51.444;6.528;2023-11-21T03:41:10;8.70;99.90
9849;DHT22;4963;51.444;6.528;2023-11-21T03:43:37;8.70;99.90
9849;DHT22;4963;51.444;6.528;2023-11-21T03:46:05;8.80;99.90
9849;DHT22;4963;51.444;6.528;2023-11-21T03:48:32;8.70;99.90
9849;DHT22;4963;51.444;6.528;2023-11-21T03:51:01;8.80;99.90
9849;DHT22;4963;51.444;6.528;2023-11-21T03:53:28;8.70;99.90
9849;DHT22;4963;51.444;6.528;2023-11-21T03:55:54;8.70;99.90
9849;DHT22;4963;51.444;6.528;2023-11-21T03:58:21;8.80;99.90
9849;DHT22;4963;51.444;6.528;2023-11-21T04:00:48;8.70;99.90
9849;DHT22;4963;51.444;6.528;2023-11-21T04:03:15;8.70;99.90
9849;DHT22;4963;51.444;6.528;2023-11-21T04:05:42;8.70;99.90
9849;DHT22;4963;51.444;6.528;2023-11-21T04:08:10;8.70;99.90
9849;DHT22;4963;51.444;6.528;2023-11-21T04:10:37;8.70;99.90
9849;DHT22;4963;51.444;6.528;2023-11-21T04:13:05;8.70;99.90
9849;DHT22;4963;51.444;6.528;2023-11-21T04:15:33;8.70;99.90
9849;DHT22;4963;51.444;6.528;2023-11-21T04:18:00;8.70;99.90
9849;DHT22;4963;51.444;6.528;2023-11-21T04:20:28;8.70;99.90
9849;DHT22;4963;51.444;6.528;2023-11-21T04:22:55;8.70;99.90
9849;DHT22;4963;51.444;6.528;2023-11-21T04:25:23;8.70;99.90
9849;DHT22;4963;51.444;6.528;2023-11-21T04:27:51;8.70;99.90
9849;DHT22;4963;51.444;6.528;2023-11-21T04:30:18;8.70;99.90
9849;DHT22;4963;51.444;6.528;2023-11-21T04:32:46;8.70;99.90
9849;DHT22;4963;51.444;6.528;2023-11-21T04:35:13;8.80;99.90
9849;DHT22;4963;51.444;6.528;2023-11-21T04:37:40;8.80;99.90
9849;DHT22;4963;51.444;6.528;2023-11-21T04:40:08;8.80;99.90
9849;DHT22;4963;51.444;6.528;2023-11-21T04:42:36;8.80;99.90
9849;DHT22;4963;51.444;6.528;2023-11-21T04:45:04;8.90;99.90
9849;DHT22;4963;51.444;6.528;2023-11-21T04:47:34;8.90;99.90
9849;DHT22;4963;51.444;6.528;2023-11-21T04:50:01;8.90;99.90
9849;DHT22;4963;51.444;6.528;2023-11-21T04:52:28;8.90;99.90
9849;DHT22;4963;51.444;6.528;2023-11-21T04:54:56;8.80;99.90
9849;DHT22;4963;51.444;6.528;2023-11-21T04:57:24;8.80;99.90
9849;DHT22;4963;51.444;6.528;2023-11-21T04:59:52;8.80;99.90
9849;DHT22;4963;51.444;6.528;2023-11-21T05:02:19;8.80;99.90
9849;DHT22;4963;51.444;6.528;2023-11-21T05:04:46;8.80;99.90
9849;DHT22;4963;51.444;6.528;2023-11-21T05:07:13;8.70;99.90
9849;DHT22;4963;51.444;6.528;2023-11-21T05:09:42;8.80;99.90
9849;DHT22;4963;51.444;6.528;2023-11-21T05:12:09;8.80;99.90
9849;DHT22;4963;51.444;6.528;2023-11-21T05:14:37;8.80;99.90
9849;DHT22;4963;51.444;6.528;2023-11-21T05:17:04;8.80;99.90
9849;DHT22;4963;51.444;6.528;2023-11-21T05:19:33;8.80;99.90
9849;DHT22;4963;51.444;6.528;2023-11-21T05:22:01;8.70;99.90
9849;DHT22;4963;51.444;6.528;2023-11-21T05:24:28;8.70;99.90
9849;DHT22;4963;51.444;6.528;2023-11-21T05:26:55;8.80;99.90
9849;DHT22;4963;51.444;6.528;2023-11-21T05:29:23;8.80;99.90
9849;DHT22;4963;51.444;6.528;2023-11-21T05:31:51;8.80;99.90
9849;DHT22;4963;51.444;6.528;2023-11-21T05:34:19;8.90;99.90
9849;DHT22;4963;51.444;6.528;2023-11-21T05:36:49;8.80;99.90
9849;DHT22;4963;51.444;6.528;2023-11-21T05:39:16;8.80;99.90
9849;DHT22;4963;51.444;6.528;2023-11-21T05:41:44;8.80;99.90
9849;DHT22;4963;51.444;6.528;2023-11-21T05:44:11;8.80;99.90
9849;DHT22;4963;51.444;6.528;2023-11-21T05:46:40;8.80;99.90
9849;DHT22;4963;51.444;6.528;2023-11-21T05:49:11;8.80;99.90
9849;DHT22;4963;51.444;6.528;2023-11-21T05:51:42;8.80;99.90
9849;DHT22;4963;51.444;6.528;2023-11-21T05:54:10;8.80;99.90
9849;DHT22;4963;51.444;6.528;2023-11-21T05:56:37;8.80;99.90
9849;DHT22;4963;51.444;6.528;2023-11-21T05:59:04;8.90;99.90
9849;DHT22;4963;51.444;6.528;2023-11-21T06:01:32;8.80;99.90
9849;DHT22;4963;51.444;6.528;2023-11-21T06:04:00;8.80;99.90
9849;DHT22;4963;51.444;6.528;2023-11-21T06:06:30;8.80;99.90
9849;DHT22;4963;51.444;6.528;2023-11-21T06:08:59;8.80;99.90
9849;DHT22;4963;51.444;6.528;2023-11-21T06:11:25;8.80;99.90
9849;DHT22;4963;51.444;6.528;2023-11-21T06:13:51;8.80;99.90
9849;DHT22;4963;51.444;6.528;2023-11-21T06:16:18;8.80;99.90
9849;DHT22;4963;51.444;6.528;2023-11-21T06:18:46;8.80;99.90
9849;DHT22;4963;51.444;6.528;2023-11-21T06:21:13;8.80;99.90
9849;DHT22;4963;51.444;6.528;2023-11-21T06:23:42;8.80;99.90
9849;DHT22;4963;51.444;6.528;2023-11-21T06:26:12;8.80;99.90
9849;DHT22;4963;51.444;6.528;2023-11-21T06:28:40;8.80;99.90
9849;DHT22;4963;51.444;6.528;2023-11-21T06:31:06;8.80;99.90
9849;DHT22;4963;51.444;6.528;2023-11-21T06:33:34;8.80;99.90
9849;DHT22;4963;51.444;6.528;2023-11-21T06:36:01;8.80;99.90
9849;DHT22;4963;51.444;6.528;2023-11-21T06:38:28;8.80;99.90
9849;DHT22;4963;51.444;6.528;2023-11-21T06:40:55;8.80;99.90
9849;DHT22;4963;51.444;6.528;2023-11-21T06:43:24;8.80;99.90
9849;DHT22;4963;51.444;6.528;2023-11-21T06:45:51;8.80;99.90
9849;DHT22;4963;51.444;6.528;2023-11-21T06:48:18;8.70;99.90
9849;DHT22;4963;51.444;6.528;2023-11-21T06:50:45;8.70;99.90
9849;DHT22;4963;51.444;6.528;2023-11-21T06:53:15;8.70;99.90
9849;DHT22;4963;51.444;6.528;2023-11-21T06:55:42;8.70;99.90
9849;DHT22;4963;51.444;6.528;2023-11-21T06:58:09;8.70;99.90
9849;DHT22;4963;51.444;6.528;2023-11-21T07:00:37;8.70;99.90
9849;DHT22;4963;51.444;6.528;2023-11-21T07:03:04;8.70;99.90
9849;DHT22;4963;51.444;6.528;2023-11-21T07:05:31;8.70;99.90
9849;DHT22;4963;51.444;6.528;2023-11-21T07:07:58;8.70;99.90
9849;DHT22;4963;51.444;6.528;2023-11-21T07:10:29;8.70;99.90
9849;DHT22;4963;51.444;6.528;2023-11-21T07:12:56;8.80;99.90
9849;DHT22;4963;51.444;6.528;2023-11-21T07:15:23;8.80;99.90
9849;DHT22;4963;51.444;6.528;2023-11-21T07:17:52;8.70;99.90
9849;DHT22;4963;51.444;6.528;2023-11-21T07:20:19;8.70;99.90
9849;DHT22;4963;51.444;6.528;2023-11-21T07:22:47;8.70;99.90
9849;DHT22;4963;51.444;6.528;2023-11-21T07:25:13;8.70;99.90
9849;DHT22;4963;51.444;6.528;2023-11-21T07:27:42;8.80;99.90
9849;DHT22;4963;51.444;6.528;2023-11-21T07:30:11;8.80;99.90
9849;DHT22;4963;51.444;6.528;2023-11-21T07:32:38;8.80;99.90
9849;DHT22;4963;51.444;6.528;2023-11-21T07:35:08;8.80;99.90
9849;DHT22;4963;51.444;6.528;2023-11-21T07:37:35;8.80;99.90
9849;DHT22;4963;51.444;6.528;2023-11-21T07:40:03;8.80;99.90
9849;DHT22;4963;51.444;6.528;2023-11-21T07:42:30;8.80;99.90
9849;DHT22;4963;51.444;6.528;2023-11-21T07:45:00;8.90;99.90
9849;DHT22;4963;51.444;6.528;2023-11-21T07:47:28;8.90;99.90
9849;DHT22;4963;51.444;6.528;2023-11-21T07:49:55;8.90;99.90
9849;DHT22;4963;51.444;6.528;2023-11-21T07:52:23;8.90;99.90
9849;DHT22;4963;51.444;6.528;2023-11-21T07:54:50;8.90;99.90
9849;DHT22;4963;51.444;6.528;2023-11-21T07:57:17;8.90;99.90
9849;DHT22;4963;51.444;6.528;2023-11-21T07:59:44;8.90;99.90
9849;DHT22;4963;51.444;6.528;2023-11-21T08:02:11;8.90;99.90
9849;DHT22;4963;51.444;6.528;2023-11-21T08:04:38;8.90;99.90
9849;DHT22;4963;51.444;6.528;2023-11-21T08:07:05;9.00;99.90
9849;DHT22;4963;51.444;6.528;2023-11-21T08:09:33;9.00;99.90
9849;DHT22;4963;51.444;6.528;2023-11-21T08:12:00;9.00;99.90
9849;DHT22;4963;51.444;6.528;2023-11-21T08:14:29;9.00;99.90
9849;DHT22;4963;51.444;6.528;2023-11-21T08:16:55;9.00;99.90
9849;DHT22;4963;51.444;6.528;2023-11-21T08:19:23;9.10;99.90
9849;DHT22;4963;51.444;6.528;2023-11-21T08:21:51;9.10;99.90
9849;DHT22;4963;51.444;6.528;2023-11-21T08:24:20;9.10;99.90
9849;DHT22;4963;51.444;6.528;2023-11-21T08:26:50;9.00;99.90
9849;DHT22;4963;51.444;6.528;2023-11-21T08:29:17;9.00;99.90
9849;DHT22;4963;51.444;6.528;2023-11-21T08:31:45;9.00;99.90
9849;DHT22;4963;51.444;6.528;2023-11-21T08:34:14;9.10;99.90
9849;DHT22;4963;51.444;6.528;2023-11-21T08:36:42;9.10;99.90
9849;DHT22;4963;51.444;6.528;2023-11-21T08:39:09;9.10;99.90
9849;DHT22;4963;51.444;6.528;2023-11-21T08:41:36;9.00;99.90
9849;DHT22;4963;51.444;6.528;2023-11-21T08:44:05;9.10;99.90
9849;DHT22;4963;51.444;6.528;2023-11-21T08:46:33;9.00;99.90
9849;DHT22;4963;51.444;6.528;2023-11-21T08:49:03;9.10;99.90
9849;DHT22;4963;51.444;6.528;2023-11-21T08:51:32;9.00;99.90
9849;DHT22;4963;51.444;6.528;2023-11-21T08:53:59;9.10;99.90
9849;DHT22;4963;51.444;6.528;2023-11-21T08:56:30;9.10;99.90
9849;DHT22;4963;51.444;6.528;2023-11-21T08:58:56;9.10;99.90
9849;DHT22;4963;51.444;6.528;2023-11-21T09:01:25;9.10;99.90
9849;DHT22;4963;51.444;6.528;2023-11-21T09:03:52;9.10;99.90
9849;DHT22;4963;51.444;6.528;2023-11-21T09:06:19;9.10;99.90
9849;DHT22;4963;51.444;6.528;2023-11-21T09:08:46;9.10;99.90
9849;DHT22;4963;51.444;6.528;2023-11-21T09:11:13;9.10;99.90
9849;DHT22;4963;51.444;6.528;2023-11-21T09:13:40;9.10;99.90
9849;DHT22;4963;51.444;6.528;2023-11-21T09:16:09;9.20;99.90
9849;DHT22;4963;51.444;6.528;2023-11-21T09:18:38;9.20;99.90
9849;DHT22;4963;51.444;6.528;2023-11-21T09:21:05;9.20;99.90
9849;DHT22;4963;51.444;6.528;2023-11-21T09:23:32;9.30;99.90
9849;DHT22;4963;51.444;6.528;2023-11-21T09:25:59;9.30;99.90
9849;DHT22;4963;51.444;6.528;2023-11-21T09:28:26;9.30;99.90
9849;DHT22;4963;51.444;6.528;2023-11-21T09:30:53;9.30;99.90
9849;DHT22;4963;51.444;6.528;2023-11-21T09:33:20;9.30;99.90
9849;DHT22;4963;51.444;6.528;2023-11-21T09:35:49;9.30;99.90
9849;DHT22;4963;51.444;6.528;2023-11-21T09:38:16;9.30;99.90
9849;DHT22;4963;51.444;6.528;2023-11-21T09:40:43;9.30;99.90
9849;DHT22;4963;51.444;6.528;2023-11-21T09:43:16;9.40;99.90
9849;DHT22;4963;51.444;6.528;2023-11-21T09:45:45;9.40;99.90
9849;DHT22;4963;51.444;6.528;2023-11-21T09:48:13;9.40;99.90
9849;DHT22;4963;51.444;6.528;2023-11-21T09:50:42;9.40;99.90
9849;DHT22;4963;51.444;6.528;2023-11-21T09:53:16;9.40;99.90
9849;DHT22;4963;51.444;6.528;2023-11-21T09:55:46;9.40;99.90
9849;DHT22;4963;51.444;6.528;2023-11-21T09:58:14;9.50;99.90
9849;DHT22;4963;51.444;6.528;2023-11-21T10:00:43;9.40;99.90
9849;DHT22;4963;51.444;6.528;2023-11-21T10:03:12;9.50;99.90
9849;DHT22;4963;51.444;6.528;2023-11-21T10:05:40;9.50;99.90
9849;DHT22;4963;51.444;6.528;2023-11-21T10:08:10;9.50;99.90
9849;DHT22;4963;51.444;6.528;2023-11-21T10:10:43;9.60;99.90
9849;DHT22;4963;51.444;6.528;2023-11-21T10:13:12;9.60;99.90
9849;DHT22;4963;51.444;6.528;2023-11-21T10:15:42;9.70;99.90
9849;DHT22;4963;51.444;6.528;2023-11-21T10:18:15;9.70;99.90
9849;DHT22;4963;51.444;6.528;2023-11-21T10:20:42;9.80;99.90
9849;DHT22;4963;51.444;6.528;2023-11-21T10:23:12;9.80;99.90
9849;DHT22;4963;51.444;6.528;2023-11-21T10:25:42;9.90;99.90
9849;DHT22;4963;51.444;6.528;2023-11-21T10:28:10;9.90;99.90
9849;DHT22;4963;51.444;6.528;2023-11-21T10:30:38;9.90;99.90
9849;DHT22;4963;51.444;6.528;2023-11-21T10:33:06;10.00;99.90
9849;DHT22;4963;51.444;6.528;2023-11-21T10:35:46;10.00;99.90
9849;DHT22;4963;51.444;6.528;2023-11-21T10:38:16;10.00;99.90
9849;DHT22;4963;51.444;6.528;2023-11-21T10:40:45;10.10;99.90
9849;DHT22;4963;51.444;6.528;2023-11-21T10:43:13;10.10;99.90
9849;DHT22;4963;51.444;6.528;2023-11-21T10:45:42;10.10;99.90
9849;DHT22;4963;51.444;6.528;2023-11-21T10:48:09;10.10;99.90
9849;DHT22;4963;51.444;6.528;2023-11-21T10:50:37;10.10;99.90
9849;DHT22;4963;51.444;6.528;2023-11-21T10:53:05;10.10;99.90
9849;DHT22;4963;51.444;6.528;2023-11-21T10:55:32;10.20;99.90
9849;DHT22;4963;51.444;6.528;2023-11-21T10:58:03;10.20;99.90
9849;DHT22;4963;51.444;6.528;2023-11-21T11:00:33;10.10;99.90
9849;DHT22;4963;51.444;6.528;2023-11-21T11:03:00;10.10;99.90
9849;DHT22;4963;51.444;6.528;2023-11-21T11:05:28;10.10;99.90
9849;DHT22;4963;51.444;6.528;2023-11-21T11:07:58;10.10;99.90
9849;DHT22;4963;51.444;6.528;2023-11-21T11:10:27;10.10;99.90
9849;DHT22;4963;51.444;6.528;2023-11-21T11:12:55;10.10;99.90
9849;DHT22;4963;51.444;6.528;2023-11-21T11:15:27;10.10;99.90
9849;DHT22;4963;51.444;6.528;2023-11-21T11:17:55;10.20;99.90
9849;DHT22;4963;51.444;6.528;2023-11-21T11:20:24;10.20;99.90
9849;DHT22;4963;51.444;6.528;2023-11-21T11:23:04;10.10;99.90
9849;DHT22;4963;51.444;6.528;2023-11-21T11:25:50;10.10;99.90
9849;DHT22;4963;51.444;6.528;2023-11-21T11:28:21;10.10;99.90
9849;DHT22;4963;51.444;6.528;2023-11-21T11:31:01;10.10;99.90
9849;DHT22;4963;51.444;6.528;2023-11-21T11:33:36;10.10;99.90
9849;DHT22;4963;51.444;6.528;2023-11-21T11:36:06;10.10;99.90
9849;DHT22;4963;51.444;6.528;2023-11-21T11:38:37;10.10;99.90
9849;DHT22;4963;51.444;6.528;2023-11-21T11:41:05;10.10;99.90
9849;DHT22;4963;51.444;6.528;2023-11-21T11:43:32;10.00;99.90
9849;DHT22;4963;51.444;6.528;2023-11-21T11:46:10;10.00;99.90
9849;DHT22;4963;51.444;6.528;2023-11-21T11:48:40;10.10;99.90
9849;DHT22;4963;51.444;6.528;2023-11-21T11:51:10;10.10;99.90
9849;DHT22;4963;51.444;6.528;2023-11-21T11:53:40;10.10;99.90
9849;DHT22;4963;51.444;6.528;2023-11-21T11:56:26;10.10;99.90
9849;DHT22;4963;51.444;6.528;2023-11-21T11:58:56;10.10;99.90
9849;DHT22;4963;51.444;6.528;2023-11-21T12:01:26;10.10;99.90
9849;DHT22;4963;51.444;6.528;2023-11-21T12:04:26;10.10;99.90
9849;DHT22;4963;51.444;6.528;2023-11-21T12:07:01;10.10;99.90
9849;DHT22;4963;51.444;6.528;2023-11-21T12:09:31;10.10;99.90
9849;DHT22;4963;51.444;6.528;2023-11-21T12:11:58;10.10;99.90
9849;DHT22;4963;51.444;6.528;2023-11-21T12:14:25;10.10;99.90
9849;DHT22;4963;51.444;6.528;2023-11-21T12:16:54;10.10;99.90
9849;DHT22;4963;51.444;6.528;2023-11-21T12:19:23;10.10;99.90
9849;DHT22;4963;51.444;6.528;2023-11-21T12:21:50;10.00;99.90
9849;DHT22;4963;51.444;6.528;2023-11-21T12:24:17;10.00;99.90
9849;DHT22;4963;51.444;6.528;2023-11-21T12:26:44;10.00;99.90
9849;DHT22;4963;51.444;6.528;2023-11-21T12:29:11;10.10;99.90
9849;DHT22;4963;51.444;6.528;2023-11-21T12:31:38;10.10;99.90
9849;DHT22;4963;51.444;6.528;2023-11-21T12:34:08;10.20;99.90
9849;DHT22;4963;51.444;6.528;2023-11-21T12:36:37;10.20;99.90
9849;DHT22;4963;51.444;6.528;2023-11-21T12:39:04;10.20;99.90
9849;DHT22;4963;51.444;6.528;2023-11-21T12:41:31;10.20;99.90
9849;DHT22;4963;51.444;6.528;2023-11-21T12:43:58;10.20;99.90
9849;DHT22;4963;51.444;6.528;2023-11-21T12:46:25;10.30;99.90
9849;DHT22;4963;51.444;6.528;2023-11-21T12:48:56;10.30;99.90
9849;DHT22;4963;51.444;6.528;2023-11-21T12:51:25;10.30;99.90
9849;DHT22;4963;51.444;6.528;2023-11-21T12:53:55;10.30;99.90
9849;DHT22;4963;51.444;6.528;2023-11-21T12:56:24;10.30;99.90
9849;DHT22;4963;51.444;6.528;2023-11-21T12:58:54;10.30;99.90
9849;DHT22;4963;51.444;6.528;2023-11-21T13:01:25;10.20;99.90
9849;DHT22;4963;51.444;6.528;2023-11-21T13:03:54;10.20;99.90
9849;DHT22;4963;51.444;6.528;2023-11-21T13:06:20;10.20;99.90
9849;DHT22;4963;51.444;6.528;2023-11-21T13:08:51;10.20;99.90
9849;DHT22;4963;51.444;6.528;2023-11-21T13:11:19;10.20;99.90
9849;DHT22;4963;51.444;6.528;2023-11-21T13:13:51;10.20;99.90
9849;DHT22;4963;51.444;6.528;2023-11-21T13:16:18;10.20;99.90
9849;DHT22;4963;51.444;6.528;2023-11-21T13:18:46;10.20;99.90
9849;DHT22;4963;51.444;6.528;2023-11-21T13:21:13;10.20;99.90
9849;DHT22;4963;51.444;6.528;2023-11-21T13:23:41;10.20;99.90
9849;DHT22;4963;51.444;6.528;2023-11-21T13:26:10;10.20;99.90
9849;DHT22;4963;51.444;6.528;2023-11-21T13:28:38;10.20;99.90
9849;DHT22;4963;51.444;6.528;2023-11-21T13:31:07;10.20;99.90
9849;DHT22;4963;51.444;6.528;2023-11-21T13:33:47;10.30;99.90
9849;DHT22;4963;51.444;6.528;2023-11-21T13:36:20;10.20;99.90
9849;DHT22;4963;51.444;6.528;2023-11-21T13:38:49;10.20;99.90
9849;DHT22;4963;51.444;6.528;2023-11-21T13:41:17;10.20;99.90
9849;DHT22;4963;51.444;6.528;2023-11-21T13:43:44;10.20;99.90
9849;DHT22;4963;51.444;6.528;2023-11-21T13:46:16;10.10;99.90
9849;DHT22;4963;51.444;6.528;2023-11-21T13:48:47;10.10;99.90
9849;DHT22;4963;51.444;6.528;2023-11-21T13:51:18;10.00;99.90
9849;DHT22;4963;51.444;6.528;2023-11-21T13:53:46;10.00;99.90
9849;DHT22;4963;51.444;6.528;2023-11-21T13:56:16;10.00;99.90
9849;DHT22;4963;51.444;6.528;2023-11-21T13:58:47;10.00;99.90
9849;DHT22;4963;51.444;6.528;2023-11-21T14:01:17;10.00;99.90
9849;DHT22;4963;51.444;6.528;2023-11-21T14:04:07;10.00;99.90
9849;DHT22;4963;51.444;6.528;2023-11-21T14:06:46;10.00;99.90
9849;DHT22;4963;51.444;6.528;2023-11-21T14:09:14;9.90;99.90
9849;DHT22;4963;51.444;6.528;2023-11-21T14:11:50;10.00;99.90
9849;DHT22;4963;51.444;6.528;2023-11-21T14:14:19;10.00;99.90
9849;DHT22;4963;51.444;6.528;2023-11-21T14:16:46;10.00;99.90
9849;DHT22;4963;51.444;6.528;2023-11-21T14:19:13;9.90;99.90
9849;DHT22;4963;51.444;6.528;2023-11-21T14:21:42;9.90;99.90
9849;DHT22;4963;51.444;6.528;2023-11-21T14:24:10;9.90;99.90
9849;DHT22;4963;51.444;6.528;2023-11-21T14:26:39;9.90;99.90
9849;DHT22;4963;51.444;6.528;2023-11-21T14:29:08;9.80;99.90
9849;DHT22;4963;51.444;6.528;2023-11-21T14:31:38;9.70;99.90
9849;DHT22;4963;51.444;6.528;2023-11-21T14:34:05;9.70;99.90
9849;DHT22;4963;51.444;6.528;2023-11-21T14:36:33;9.70;99.90
9849;DHT22;4963;51.444;6.528;2023-11-21T14:38:59;9.70;99.90
9849;DHT22;4963;51.444;6.528;2023-11-21T14:41:26;9.60;99.90
9849;DHT22;4963;51.444;6.528;2023-11-21T14:43:54;9.60;99.90
9849;DHT22;4963;51.444;6.528;2023-11-21T14:46:25;9.60;99.90
9849;DHT22;4963;51.444;6.528;2023-11-21T14:48:52;9.60;99.90
9849;DHT22;4963;51.444;6.528;2023-11-21T14:51:28;9.70;99.90
9849;DHT22;4963;51.444;6.528;2023-11-21T14:53:56;9.60;99.90
9849;DHT22;4963;51.444;6.528;2023-11-21T14:56:26;9.60;99.90
9849;DHT22;4963;51.444;6.528;2023-11-21T14:58:55;9.60;99.90
9849;DHT22;4963;51.444;6.528;2023-11-21T15:01:24;9.60;99.90
9849;DHT22;4963;51.444;6.528;2023-11-21T15:04:06;9.60;99.90
9849;DHT22;4963;51.444;6.528;2023-11-21T15:06:34;9.60;99.90
9849;DHT22;4963;51.444;6.528;2023-11-21T15:09:02;9.60;99.90
9849;DHT22;4963;51.444;6.528;2023-11-21T15:11:43;9.60;99.90
9849;DHT22;4963;51.444;6.528;2023-11-21T15:14:10;9.50;99.90
9849;DHT22;4963;51.444;6.528;2023-11-21T15:16:43;9.60;99.90
9849;DHT22;4963;51.444;6.528;2023-11-21T15:19:15;9.50;99.90
9849;DHT22;4963;51.444;6.528;2023-11-21T15:21:44;9.50;99.90
9849;DHT22;4963;51.444;6.528;2023-11-21T15:24:12;9.50;99.90
9849;DHT22;4963;51.444;6.528;2023-11-21T15:26:39;9.50;99.90
9849;DHT22;4963;51.444;6.528;2023-11-21T15:29:06;9.50;99.90
9849;DHT22;4963;51.444;6.528;2023-11-21T15:31:33;9.50;99.90
9849;DHT22;4963;51.444;6.528;2023-11-21T15:34:03;9.40;99.90
9849;DHT22;4963;51.444;6.528;2023-11-21T15:36:31;9.40;99.90
9849;DHT22;4963;51.444;6.528;2023-11-21T15:38:59;9.40;99.90
9849;DHT22;4963;51.444;6.528;2023-11-21T15:41:25;9.40;99.90
9849;DHT22;4963;51.444;6.528;2023-11-21T15:43:52;9.40;99.90
9849;DHT22;4963;51.444;6.528;2023-11-21T15:46:19;9.40;99.90
9849;DHT22;4963;51.444;6.528;2023-11-21T15:48:46;9.40;99.90
9849;DHT22;4963;51.444;6.528;2023-11-21T15:51:18;9.40;99.90
9849;DHT22;4963;51.444;6.528;2023-11-21T15:53:45;9.40;99.90
9849;DHT22;4963;51.444;6.528;2023-11-21T15:56:12;9.40;99.90
9849;DHT22;4963;51.444;6.528;2023-11-21T15:58:39;9.40;99.90
9849;DHT22;4963;51.444;6.528;2023-11-21T16:01:08;9.30;99.90
9849;DHT22;4963;51.444;6.528;2023-11-21T16:03:38;9.30;99.90
9849;DHT22;4963;51.444;6.528;2023-11-21T16:06:05;9.20;99.90
9849;DHT22;4963;51.444;6.528;2023-11-21T16:08:36;9.30;99.90
9849;DHT22;4963;51.444;6.528;2023-11-21T16:11:04;9.20;99.90
9849;DHT22;4963;51.444;6.528;2023-11-21T16:13:33;9.10;99.90
9849;DHT22;4963;51.444;6.528;2023-11-21T16:16:00;9.20;99.90
9849;DHT22;4963;51.444;6.528;2023-11-21T16:18:27;9.20;99.90
9849;DHT22;4963;51.444;6.528;2023-11-21T16:20:54;9.20;99.90
9849;DHT22;4963;51.444;6.528;2023-11-21T16:23:20;9.20;99.90